createdAt,value
2023-04-10T00:02:04.190Z,101242.00
2023-04-10T00:04:32.923Z,101246.19
2023-04-10T00:07:00.823Z,101241.88
2023-04-10T00:09:29.965Z,101248.62
2023-04-10T00:11:58.220Z,101247.41
2023-04-10T00:14:26.178Z,101249.50
2023-04-10T00:16:54.143Z,101254.88
2023-04-10T00:19:22.465Z,101230.50
2023-04-10T00:21:50.220Z,101245.09
2023-04-10T00:24:18.249Z,101252.81
2023-04-10T00:26:46.503Z,101254.50
2023-04-10T00:29:14.500Z,101262.66
2023-04-10T00:31:42.460Z,101258.03
2023-04-10T00:34:10.792Z,101245.34
2023-04-10T00:36:38.563Z,101257.75
2023-04-10T00:39:07.746Z,101255.56
2023-04-10T00:41:35.857Z,101254.63
2023-04-10T00:44:03.897Z,101256.66
2023-04-10T00:46:32.440Z,101243.16
2023-04-10T00:49:03.325Z,101250.22
2023-04-10T00:51:31.707Z,101258.03
2023-04-10T00:54:01.621Z,101250.78
2023-04-10T00:56:32.342Z,101248.56
2023-04-10T00:59:00.521Z,101250.16
2023-04-10T01:01:28.359Z,101252.53
2023-04-10T01:03:58.183Z,101257.53
2023-04-10T01:07:11.803Z,101248.53
2023-04-10T01:09:53.977Z,101256.84
2023-04-10T01:12:34.025Z,101253.94
2023-04-10T01:15:04.703Z,101261.81
2023-04-10T01:17:58.558Z,101258.62
2023-04-10T01:20:31.010Z,101263.25
2023-04-10T01:23:29.826Z,101253.06
2023-04-10T01:26:04.778Z,101260.47
2023-04-10T01:28:57.587Z,101251.97
2023-04-10T01:32:02.016Z,101259.88
2023-04-10T01:34:51.501Z,101262.56
2023-04-10T01:37:34.974Z,101259.16
2023-04-10T01:40:07.374Z,101255.78
2023-04-10T01:42:54.934Z,101254.84
2023-04-10T01:45:29.378Z,101259.75
2023-04-10T01:47:58.126Z,101263.56
2023-04-10T01:50:28.952Z,101267.28
2023-04-10T01:52:59.471Z,101260.03
2023-04-10T01:55:28.316Z,101258.13
2023-04-10T01:57:57.081Z,101256.63
2023-04-10T02:00:25.701Z,101255.22
2023-04-10T02:02:54.368Z,101259.38
2023-04-10T02:05:25.918Z,101260.22
2023-04-10T02:08:13.179Z,101253.38
2023-04-10T02:11:03.756Z,101259.34
2023-04-10T02:13:36.144Z,101262.06
2023-04-10T02:16:07.709Z,101243.25
2023-04-10T02:18:38.420Z,101264.75
2023-04-10T02:21:07.725Z,101263.00
2023-04-10T02:23:37.014Z,101267.25
2023-04-10T02:26:09.614Z,101264.66
2023-04-10T02:28:40.677Z,101262.06
2023-04-10T02:31:08.695Z,101266.44
2023-04-10T02:33:36.987Z,101261.94
2023-04-10T02:36:05.580Z,101263.66
2023-04-10T02:38:33.496Z,101262.72
2023-04-10T02:41:01.430Z,101263.47
2023-04-10T02:43:30.079Z,101264.34
2023-04-10T02:45:58.046Z,101274.59
2023-04-10T02:48:26.135Z,101277.16
2023-04-10T02:50:59.164Z,101268.47
2023-04-10T02:53:27.819Z,101276.97
2023-04-10T02:55:56.679Z,101268.25
2023-04-10T02:58:24.761Z,101278.53
2023-04-10T03:00:54.111Z,101280.25
2023-04-10T03:03:22.994Z,101269.81
2023-04-10T03:05:51.414Z,101285.16
2023-04-10T03:08:19.946Z,101287.16
2023-04-10T03:10:51.392Z,101292.00
2023-04-10T03:13:19.312Z,101287.63
2023-04-10T03:15:47.409Z,101297.81
2023-04-10T03:18:15.832Z,101301.13
2023-04-10T03:20:45.127Z,101297.56
2023-04-10T03:23:13.265Z,101278.56
2023-04-10T03:25:41.753Z,101303.53
2023-04-10T03:28:09.942Z,101294.94
2023-04-10T03:30:38.225Z,101285.28
2023-04-10T03:33:06.591Z,101297.97
2023-04-10T03:35:34.442Z,101298.72
2023-04-10T03:38:03.188Z,101291.63
2023-04-10T03:40:31.728Z,101298.22
2023-04-10T03:42:59.599Z,101294.63
2023-04-10T03:45:29.184Z,101263.56
2023-04-10T03:47:57.434Z,101260.72
2023-04-10T03:50:25.923Z,101285.47
2023-04-10T03:52:54.287Z,101284.81
2023-04-10T03:55:22.767Z,101286.69
2023-04-10T03:57:50.885Z,101284.97
2023-04-10T04:00:20.925Z,101289.22
2023-04-10T04:02:51.191Z,101286.62
2023-04-10T04:05:20.455Z,101285.66
2023-04-10T04:07:49.106Z,101274.47
2023-04-10T04:10:17.938Z,101284.41
2023-04-10T04:12:47.701Z,101293.75
2023-04-10T04:15:16.373Z,101290.87
2023-04-10T04:17:46.528Z,101277.03
2023-04-10T04:20:17.096Z,101294.78
2023-04-10T04:22:45.143Z,101297.16
2023-04-10T04:25:13.117Z,101288.19
2023-04-10T04:27:43.130Z,101295.63
2023-04-10T04:30:11.985Z,101290.06
2023-04-10T04:32:43.407Z,101283.53
2023-04-10T04:35:11.701Z,101283.72
2023-04-10T04:37:44.102Z,101278.88
2023-04-10T04:40:15.072Z,101278.78
2023-04-10T04:42:45.042Z,101277.16
2023-04-10T04:45:14.572Z,101277.72
2023-04-10T04:47:42.725Z,101275.59
2023-04-10T04:50:11.600Z,101279.50
2023-04-10T04:52:41.198Z,101274.84
2023-04-10T04:55:10.537Z,101267.94
2023-04-10T04:57:40.674Z,101281.56
2023-04-10T05:00:10.230Z,101283.16
2023-04-10T05:02:39.427Z,101283.94
2023-04-10T05:05:08.067Z,101287.22
2023-04-10T05:07:39.886Z,101277.09
2023-04-10T05:10:09.234Z,101272.84
2023-04-10T05:12:37.632Z,101283.06
2023-04-10T05:15:06.826Z,101288.34
2023-04-10T05:17:35.841Z,101280.06
2023-04-10T05:20:05.170Z,101286.41
2023-04-10T05:22:36.792Z,101278.84
2023-04-10T05:25:06.565Z,101276.84
2023-04-10T05:27:35.648Z,101276.72
2023-04-10T05:30:04.324Z,101274.50
2023-04-10T05:32:36.222Z,101279.38
2023-04-10T05:35:04.848Z,101274.56
2023-04-10T05:37:33.432Z,101278.94
2023-04-10T05:40:01.451Z,101283.38
2023-04-10T05:42:31.397Z,101272.38
2023-04-10T05:44:59.934Z,101270.56
2023-04-10T05:47:28.156Z,101279.75
2023-04-10T05:49:56.609Z,101276.34
2023-04-10T05:52:25.640Z,101285.56
2023-04-10T05:54:54.969Z,101288.19
2023-04-10T05:57:25.927Z,101284.81
2023-04-10T05:59:54.467Z,101273.31
2023-04-10T06:02:22.662Z,101281.06
2023-04-10T06:04:52.020Z,101253.13
2023-04-10T06:07:20.214Z,101275.38
2023-04-10T06:09:48.007Z,101273.78
2023-04-10T06:12:19.271Z,101274.88
2023-04-10T06:14:52.544Z,101277.50
2023-04-10T06:17:26.125Z,101276.91
2023-04-10T06:19:54.105Z,101274.56
2023-04-10T06:22:22.220Z,101278.53
2023-04-10T06:24:51.346Z,101272.75
2023-04-10T06:27:19.402Z,101273.28
2023-04-10T06:29:47.739Z,101268.72
2023-04-10T06:32:16.959Z,101275.06
2023-04-10T06:34:46.674Z,101280.84
2023-04-10T06:37:14.918Z,101283.38
2023-04-10T06:39:42.803Z,101276.03
2023-04-10T06:42:10.792Z,101273.59
2023-04-10T06:44:40.980Z,101275.47
2023-04-10T06:47:09.482Z,101273.63
2023-04-10T06:49:37.301Z,101278.66
2023-04-10T06:52:05.803Z,101268.47
2023-04-10T06:54:33.587Z,101267.75
2023-04-10T06:57:01.388Z,101259.12
2023-04-10T06:59:29.638Z,101277.37
2023-04-10T07:01:57.452Z,101271.50
2023-04-10T07:04:25.310Z,101277.69
2023-04-10T07:06:53.551Z,101277.41
2023-04-10T07:09:21.617Z,101263.09
2023-04-10T07:11:49.580Z,101272.34
2023-04-10T07:14:17.680Z,101265.00
2023-04-10T07:16:45.693Z,101272.81
2023-04-10T07:19:13.593Z,101272.81
2023-04-10T07:21:42.638Z,101259.78
2023-04-10T07:24:10.822Z,101245.81
2023-04-10T07:26:38.530Z,101261.34
2023-04-10T07:29:06.792Z,101269.09
2023-04-10T07:31:34.656Z,101247.19
2023-04-10T07:34:03.480Z,101265.91
2023-04-10T07:36:32.289Z,101262.22
2023-04-10T07:39:00.305Z,101266.50
2023-04-10T07:41:28.271Z,101265.47
2023-04-10T07:43:56.541Z,101261.19
2023-04-10T07:46:24.320Z,101257.66
2023-04-10T07:48:52.438Z,101251.19
2023-04-10T07:51:21.019Z,101251.25
2023-04-10T07:53:48.788Z,101262.66
2023-04-10T07:56:21.273Z,101261.38
2023-04-10T07:58:50.033Z,101256.72
2023-04-10T08:01:17.721Z,101255.88
2023-04-10T08:03:47.987Z,101258.06
2023-04-10T08:06:15.973Z,101256.59
2023-04-10T08:08:43.894Z,101256.19
2023-04-10T08:11:28.095Z,101261.66
2023-04-10T08:13:58.452Z,101265.50
2023-04-10T08:16:28.360Z,101250.34
2023-04-10T08:18:57.989Z,101250.75
2023-04-10T08:21:27.659Z,101239.50
2023-04-10T08:23:57.116Z,101239.66
2023-04-10T08:26:26.591Z,101234.13
2023-04-10T08:28:57.565Z,101233.91
2023-04-10T08:31:27.725Z,101234.50
2023-04-10T08:33:56.972Z,101220.31
2023-04-10T08:36:25.216Z,101225.72
2023-04-10T08:38:53.003Z,101223.22
2023-04-10T08:41:21.611Z,101230.00
2023-04-10T08:43:50.384Z,101229.31
2023-04-10T08:46:18.316Z,101222.94
2023-04-10T08:48:56.778Z,101225.97
2023-04-10T08:51:32.606Z,101224.81
2023-04-10T08:54:12.178Z,101217.38
2023-04-10T08:56:43.216Z,101203.22
2023-04-10T08:59:11.585Z,101212.72
2023-04-10T09:01:40.913Z,101211.69
2023-04-10T09:04:11.223Z,101216.03
2023-04-10T09:06:39.913Z,101211.00
2023-04-10T09:09:07.923Z,101211.56
2023-04-10T09:11:56.679Z,101213.03
2023-04-10T09:14:26.626Z,101208.34
2023-04-10T09:16:57.063Z,101203.16
2023-04-10T09:19:34.738Z,101213.37
2023-04-10T09:22:02.799Z,101203.37
2023-04-10T09:24:31.317Z,101203.59
2023-04-10T09:26:59.120Z,101197.53
2023-04-10T09:29:38.401Z,101199.31
2023-04-10T09:32:06.654Z,101197.44
2023-04-10T09:34:34.363Z,101205.72
2023-04-10T09:37:02.482Z,101202.22
2023-04-10T09:39:43.500Z,101205.88
2023-04-10T09:42:15.809Z,101194.41
2023-04-10T09:44:44.153Z,101189.19
2023-04-10T09:47:17.378Z,101182.69
2023-04-10T09:49:53.819Z,101194.75
2023-04-10T09:52:38.666Z,101199.00
2023-04-10T09:55:10.950Z,101195.03
2023-04-10T09:57:38.735Z,101191.28
2023-04-10T10:00:07.470Z,101194.66
2023-04-10T10:02:39.338Z,101190.72
2023-04-10T10:05:08.214Z,101193.78
2023-04-10T10:07:37.048Z,101191.34
2023-04-10T10:10:09.290Z,101181.25
2023-04-10T10:12:50.763Z,101184.31
2023-04-10T10:15:27.414Z,101179.66
2023-04-10T10:17:58.586Z,101169.41
2023-04-10T10:20:27.428Z,101172.19
2023-04-10T10:22:57.433Z,101165.22
2023-04-10T10:25:26.833Z,101171.66
2023-04-10T10:27:56.476Z,101167.16
2023-04-10T10:30:30.159Z,101167.50
2023-04-10T10:33:07.846Z,101168.00
2023-04-10T10:35:37.215Z,101162.47
2023-04-10T10:38:06.671Z,101147.97
2023-04-10T10:41:02.565Z,101156.09
2023-04-10T10:43:53.501Z,101154.47
2023-04-10T10:46:44.376Z,101143.06
2023-04-10T10:49:12.552Z,101157.44
2023-04-10T10:51:51.701Z,101151.75
2023-04-10T10:54:33.461Z,101152.75
2023-04-10T10:57:03.406Z,101147.94
2023-04-10T11:00:00.960Z,101138.19
2023-04-10T11:02:31.245Z,101136.59
2023-04-10T11:04:59.557Z,101129.28
2023-04-10T11:07:58.961Z,101137.63
2023-04-10T11:11:07.616Z,101135.03
2023-04-10T11:13:37.400Z,101133.69
2023-04-10T11:16:07.872Z,101131.53
2023-04-10T11:18:56.076Z,101142.22
2023-04-10T11:21:35.930Z,101130.31
2023-04-10T11:24:04.913Z,101134.63
2023-04-10T11:26:41.831Z,101139.47
2023-04-10T11:29:28.303Z,101138.28
2023-04-10T11:31:57.569Z,101144.12
2023-04-10T11:34:27.830Z,101137.81
2023-04-10T11:36:56.078Z,101143.00
2023-04-10T11:39:23.921Z,101139.25
2023-04-10T11:41:53.704Z,101134.91
2023-04-10T11:44:35.556Z,101135.13
2023-04-10T11:47:03.899Z,101129.53
2023-04-10T11:49:34.940Z,101118.31
2023-04-10T11:52:03.754Z,101131.63
2023-04-10T11:54:32.875Z,101133.38
2023-04-10T11:57:10.131Z,101112.75
2023-04-10T11:59:38.422Z,101127.09
2023-04-10T12:02:16.242Z,101124.63
2023-04-10T12:04:45.058Z,101124.06
2023-04-10T12:07:13.053Z,101123.44
2023-04-10T12:09:41.302Z,101121.19
2023-04-10T12:12:09.697Z,101134.69
2023-04-10T12:14:40.603Z,101130.91
2023-04-10T12:17:11.884Z,101134.28
2023-04-10T12:19:41.004Z,101127.53
2023-04-10T12:22:12.312Z,101135.47
2023-04-10T12:24:53.915Z,101123.00
2023-04-10T12:27:27.956Z,101138.72
2023-04-10T12:29:58.537Z,101134.34
2023-04-10T12:32:27.833Z,101133.66
2023-04-10T12:35:01.589Z,101126.47
2023-04-10T12:37:51.436Z,101128.47
2023-04-10T12:40:20.955Z,101129.28
2023-04-10T12:42:48.714Z,101107.19
2023-04-10T12:45:16.803Z,101110.69
2023-04-10T12:47:55.644Z,101100.09
2023-04-10T12:50:23.839Z,101103.31
2023-04-10T12:53:14.138Z,101096.84
2023-04-10T12:55:56.682Z,101099.66
2023-04-10T12:58:28.517Z,101091.50
2023-04-10T13:00:56.864Z,101094.87
2023-04-10T13:03:26.088Z,101095.06
2023-04-10T13:05:54.491Z,101089.69
2023-04-10T13:08:23.502Z,101100.34
2023-04-10T13:10:51.875Z,101094.66
2023-04-10T13:13:19.790Z,101099.47
2023-04-10T13:15:48.174Z,101096.84
2023-04-10T13:18:16.617Z,101094.00
2023-04-10T13:20:47.204Z,101112.31
2023-04-10T13:23:15.126Z,101106.47
2023-04-10T13:25:43.477Z,101105.44
2023-04-10T13:28:16.174Z,101115.75
2023-04-10T13:30:44.334Z,101120.94
2023-04-10T13:33:12.132Z,101108.88
2023-04-10T13:35:43.069Z,101105.31
2023-04-10T13:38:12.037Z,101103.53
2023-04-10T13:40:39.840Z,101106.91
2023-04-10T13:43:07.757Z,101109.19
2023-04-10T13:45:36.245Z,101100.47
2023-04-10T13:48:04.384Z,101103.75
2023-04-10T13:50:32.523Z,101099.50
2023-04-10T13:53:03.807Z,101098.75
2023-04-10T13:55:31.645Z,101104.00
2023-04-10T13:57:59.478Z,101112.19
2023-04-10T14:00:28.087Z,101115.66
2023-04-10T14:02:56.523Z,101114.97
2023-04-10T14:05:24.486Z,101112.22
2023-04-10T14:07:57.697Z,101122.59
2023-04-10T14:10:25.753Z,101103.06
2023-04-10T14:12:53.589Z,101121.94
2023-04-10T14:15:21.488Z,101124.66
2023-04-10T14:17:49.702Z,101125.69
2023-04-10T14:20:17.533Z,101124.91
2023-04-10T14:22:45.226Z,101124.38
2023-04-10T14:25:16.280Z,101124.91
2023-04-10T14:27:44.132Z,101122.22
2023-04-10T14:30:12.270Z,101112.16
2023-04-10T14:32:40.545Z,101119.50
2023-04-10T14:35:08.991Z,101126.22
2023-04-10T14:37:37.057Z,101122.78
2023-04-10T14:40:05.926Z,101141.94
2023-04-10T14:42:33.720Z,101136.44
2023-04-10T14:45:01.504Z,101139.47
2023-04-10T14:47:31.233Z,101139.66
2023-04-10T14:49:59.172Z,101145.09
2023-04-10T14:52:26.923Z,101141.66
2023-04-10T14:54:55.122Z,101154.53
2023-04-10T14:57:23.071Z,101151.97
2023-04-10T14:59:50.977Z,101145.19
2023-04-10T15:02:19.158Z,101139.81
2023-04-10T15:04:46.947Z,101146.00
2023-04-10T15:07:15.023Z,101149.81
2023-04-10T15:09:44.874Z,101139.09
2023-04-10T15:12:12.928Z,101133.56
2023-04-10T15:14:40.641Z,101134.50
2023-04-10T15:17:09.026Z,101133.66
2023-04-10T15:19:36.732Z,101128.34
2023-04-10T15:22:04.523Z,101131.16
2023-04-10T15:24:43.329Z,101124.78
2023-04-10T15:27:19.125Z,101115.94
2023-04-10T15:29:47.476Z,101109.09
2023-04-10T15:32:15.348Z,101106.78
2023-04-10T15:34:43.153Z,101111.91
2023-04-10T15:37:11.991Z,101093.44
2023-04-10T15:39:39.743Z,101089.97
2023-04-10T15:42:08.565Z,101078.66
2023-04-10T15:44:36.781Z,101065.56
2023-04-10T15:47:04.835Z,101068.97
2023-04-10T15:49:37.814Z,101065.75
2023-04-10T15:52:07.493Z,101064.22
2023-04-10T15:54:35.587Z,101075.84
2023-04-10T15:57:03.994Z,101064.66
2023-04-10T15:59:33.970Z,101078.81
2023-04-10T16:02:02.103Z,101079.75
2023-04-10T16:04:31.394Z,101070.94
2023-04-10T16:06:59.455Z,101071.31
2023-04-10T16:09:27.591Z,101074.31
2023-04-10T16:11:56.462Z,101073.16
2023-04-10T16:14:24.423Z,101075.47
2023-04-10T16:16:52.392Z,101068.69
2023-04-10T16:19:21.163Z,101079.59
2023-04-10T16:21:49.098Z,101067.19
2023-04-10T16:24:17.158Z,101070.81
2023-04-10T16:26:45.269Z,101069.06
2023-04-10T16:29:13.270Z,101064.50
2023-04-10T16:31:41.145Z,101063.56
2023-04-10T16:34:09.451Z,101061.38
2023-04-10T16:36:37.812Z,101066.12
2023-04-10T16:39:06.094Z,101062.97
2023-04-10T16:41:46.418Z,101063.25
2023-04-10T16:44:14.282Z,101067.09
2023-04-10T16:46:54.916Z,101065.66
2023-04-10T16:49:22.896Z,101072.06
2023-04-10T16:51:51.423Z,101063.13
2023-04-10T16:54:19.311Z,101064.56
2023-04-10T16:56:47.147Z,101068.81
2023-04-10T16:59:15.583Z,101062.34
2023-04-10T17:01:43.439Z,101060.34
2023-04-10T17:04:11.967Z,101057.75
2023-04-10T17:06:40.387Z,101058.16
2023-04-10T17:09:08.162Z,101063.28
2023-04-10T17:11:48.401Z,101052.81
2023-04-10T17:14:16.513Z,101049.75
2023-04-10T17:16:44.489Z,101049.91
2023-04-10T17:19:13.026Z,101048.38
2023-04-10T17:21:41.137Z,101058.94
2023-04-10T17:24:09.168Z,101058.78
2023-04-10T17:26:50.254Z,101061.38
2023-04-10T17:29:20.460Z,101055.66
2023-04-10T17:31:48.911Z,101050.53
2023-04-10T17:34:16.820Z,101060.34
2023-04-10T17:36:44.617Z,101056.84
2023-04-10T17:39:12.836Z,101059.53
2023-04-10T17:41:41.097Z,101058.84
2023-04-10T17:44:08.883Z,101056.50
2023-04-10T17:46:39.288Z,101053.28
2023-04-10T17:49:07.277Z,101054.44
2023-04-10T17:51:35.095Z,101040.94
2023-04-10T17:54:03.508Z,101038.69
2023-04-10T17:56:32.044Z,101048.47
2023-04-10T17:59:00.848Z,101046.50
2023-04-10T18:01:32.024Z,101055.34
2023-04-10T18:04:03.072Z,101045.66
2023-04-10T18:06:31.968Z,101047.75
2023-04-10T18:09:00.253Z,101041.25
2023-04-10T18:11:28.799Z,101030.84
2023-04-10T18:13:56.623Z,101026.69
2023-04-10T18:16:24.937Z,101051.91
2023-04-10T18:18:52.988Z,101047.75
2023-04-10T18:21:21.576Z,101040.75
2023-04-10T18:23:49.816Z,101044.31
2023-04-10T18:26:21.737Z,101028.25
2023-04-10T18:28:49.854Z,101043.19
2023-04-10T18:31:19.391Z,101043.75
2023-04-10T18:33:53.366Z,101033.66
2023-04-10T18:36:32.541Z,101043.09
2023-04-10T18:39:00.484Z,101046.75
2023-04-10T18:41:28.490Z,101048.03
2023-04-10T18:44:04.828Z,101034.09
2023-04-10T18:46:34.430Z,101048.47
2023-04-10T18:49:03.671Z,101049.09
2023-04-10T18:51:34.943Z,101046.91
2023-04-10T18:54:04.351Z,101047.03
2023-04-10T18:56:32.962Z,101050.44
2023-04-10T18:59:00.965Z,101050.06
2023-04-10T19:01:29.337Z,101047.78
2023-04-10T19:03:57.624Z,101049.16
2023-04-10T19:06:27.288Z,101044.91
2023-04-10T19:08:56.129Z,101043.22
2023-04-10T19:11:23.885Z,101033.75
2023-04-10T19:13:51.622Z,101043.63
2023-04-10T19:16:20.812Z,101035.44
2023-04-10T19:18:49.084Z,101038.66
2023-04-10T19:21:16.982Z,101040.50
2023-04-10T19:23:45.665Z,101039.50
2023-04-10T19:26:13.549Z,101036.91
2023-04-10T19:28:41.259Z,101034.22
2023-04-10T19:31:09.648Z,101031.62
2023-04-10T19:33:37.484Z,101038.56
2023-04-10T19:36:08.036Z,101037.81
2023-04-10T19:38:36.792Z,101040.19
2023-04-10T19:41:14.486Z,101043.72
2023-04-10T19:43:42.711Z,101028.38
2023-04-10T19:46:21.321Z,101035.16
2023-04-10T19:48:49.605Z,101039.97
2023-04-10T19:51:17.595Z,101033.91
2023-04-10T19:53:45.614Z,101036.56
2023-04-10T19:56:13.824Z,101036.75
2023-04-10T19:58:42.571Z,101033.31
2023-04-10T20:01:12.685Z,101034.72
2023-04-10T20:03:41.054Z,101034.25
2023-04-10T20:06:09.220Z,101029.50
2023-04-10T20:08:37.377Z,101024.09
2023-04-10T20:11:06.908Z,101022.81
2023-04-10T20:13:35.149Z,101030.84
2023-04-10T20:16:03.226Z,101023.84
2023-04-10T20:18:32.494Z,101023.22
2023-04-10T20:21:00.388Z,101026.84
2023-04-10T20:23:28.254Z,101021.06
2023-04-10T20:25:56.494Z,101020.13
2023-04-10T20:28:24.256Z,101018.19
2023-04-10T20:30:57.074Z,101026.00
2023-04-10T20:33:25.251Z,101030.63
2023-04-10T20:35:53.230Z,101026.31
2023-04-10T20:38:21.052Z,101030.97
2023-04-10T20:40:49.154Z,101030.63
2023-04-10T20:43:18.963Z,101014.09
2023-04-10T20:45:46.834Z,101034.34
2023-04-10T20:48:14.927Z,101032.06
2023-04-10T20:50:45.653Z,101039.25
2023-04-10T20:53:13.684Z,101036.59
2023-04-10T20:55:42.214Z,101035.09
2023-04-10T20:58:10.071Z,101032.88
2023-04-10T21:00:39.924Z,101033.41
2023-04-10T21:03:08.513Z,101034.69
2023-04-10T21:05:41.208Z,101038.03
2023-04-10T21:08:09.765Z,101038.66
2023-04-10T21:10:44.245Z,101036.69
2023-04-10T21:13:15.970Z,101035.59
2023-04-10T21:15:43.842Z,101039.44
2023-04-10T21:18:12.605Z,101046.16
2023-04-10T21:20:40.266Z,101040.44
2023-04-10T21:23:08.034Z,101036.78
2023-04-10T21:25:36.793Z,101037.03
2023-04-10T21:28:04.838Z,101043.81
2023-04-10T21:30:32.631Z,101037.81
2023-04-10T21:33:00.936Z,101040.44
2023-04-10T21:35:28.862Z,101014.69
2023-04-10T21:38:01.348Z,101030.69
2023-04-10T21:40:34.892Z,101028.19
2023-04-10T21:43:03.530Z,101024.66
2023-04-10T21:45:34.811Z,101023.63
2023-04-10T21:48:02.937Z,101027.03
2023-04-10T21:50:31.338Z,101026.09
2023-04-10T21:53:00.423Z,101028.72
2023-04-10T21:55:28.380Z,101026.09
2023-04-10T21:57:57.178Z,101020.88
2023-04-10T22:00:25.173Z,101026.09
2023-04-10T22:02:53.698Z,101017.50
2023-04-10T22:05:22.813Z,101017.63
2023-04-10T22:07:50.946Z,101021.13
2023-04-10T22:10:19.255Z,101015.12
2023-04-10T22:12:49.007Z,101023.84
2023-04-10T22:15:17.726Z,101025.50
2023-04-10T22:17:46.601Z,101022.84
2023-04-10T22:20:14.430Z,101021.91
2023-04-10T22:22:42.164Z,101021.13
2023-04-10T22:25:10.632Z,101023.69
2023-04-10T22:27:38.476Z,101023.84
2023-04-10T22:30:07.254Z,101022.84
2023-04-10T22:32:35.633Z,101017.63
2023-04-10T22:35:03.671Z,101012.47
2023-04-10T22:37:31.552Z,101021.09
2023-04-10T22:40:02.413Z,101015.12
2023-04-10T22:42:32.024Z,101010.69
2023-04-10T22:45:00.316Z,101008.88
2023-04-10T22:47:28.108Z,100983.38
2023-04-10T22:49:56.047Z,101009.81
2023-04-10T22:52:24.287Z,101001.31
2023-04-10T22:54:52.139Z,100994.34
2023-04-10T22:57:20.052Z,100994.25
2023-04-10T22:59:48.288Z,100998.69
2023-04-10T23:02:16.241Z,101000.41
2023-04-10T23:04:44.268Z,100989.25
2023-04-10T23:07:12.499Z,100991.84
2023-04-10T23:09:40.338Z,100988.41
2023-04-10T23:12:08.333Z,100969.13
2023-04-10T23:14:36.801Z,100987.88
2023-04-10T23:17:04.628Z,100988.91
2023-04-10T23:19:32.448Z,100987.28
2023-04-10T23:22:00.463Z,100987.47
2023-04-10T23:24:28.275Z,100984.97
2023-04-10T23:26:56.014Z,100992.84
2023-04-10T23:29:24.221Z,100966.25
2023-04-10T23:31:52.130Z,100990.88
2023-04-10T23:34:21.368Z,100990.25
2023-04-10T23:36:49.537Z,100991.06
2023-04-10T23:39:17.373Z,100986.63
2023-04-10T23:41:45.347Z,100987.69
2023-04-10T23:44:13.619Z,100983.78
2023-04-10T23:46:41.638Z,100962.84
2023-04-10T23:49:09.584Z,100978.78
2023-04-10T23:51:37.859Z,100983.25
2023-04-10T23:54:06.700Z,100966.63
2023-04-10T23:56:34.452Z,100979.66
2023-04-10T23:59:02.690Z,100987.38
